Time;durP1;ratioP1;P1;durP2;ratioP2;P2;SDS_P1;SDS_P2;PMS_P1;PMS_P2;Temp;Humidity;BMP_temperature;BMP_pressure;BME280_temperature;BME280_humidity;BME280_pressure;Samples;Min_cycle;Max_cycle;Signal;HPM_P1;HPM_P2
2022/07/31 00:00:22;;;;;;;0.90;0.73;;;;;;;;;;5075554;28;20866;-78
2022/07/31 00:02:49;;;;;;;0.80;0.80;;;;;;;;;;5075744;28;20427;-78
2022/07/31 00:05:16;;;;;;;0.80;0.77;;;;;;;;;;5075337;28;20518;-78
2022/07/31 00:07:43;;;;;;;0.80;0.70;;;;;;;;;;5058717;28;20459;-78
2022/07/31 00:10:11;;;;;;;0.73;0.70;;;;;;;;;;5068352;28;20459;-78
2022/07/31 00:12:37;;;;;;;0.80;0.80;;;;;;;;;;5058882;28;20450;-78
2022/07/31 00:15:07;;;;;;;0.80;0.80;;;;;;;;;;5069439;28;20501;-78
2022/07/31 00:17:33;;;;;;;0.90;0.80;;;;;;;;;;5054465;28;20462;-77
2022/07/31 00:20:00;;;;;;;0.80;0.80;;;;;;;;;;5055594;28;20452;-78
2022/07/31 00:22:28;;;;;;;0.80;0.70;;;;;;;;;;5055446;28;20483;-78
2022/07/31 00:24:54;;;;;;;1.03;0.93;;;;;;;;;;5055279;28;20451;-78
2022/07/31 00:27:23;;;;;;;0.80;0.80;;;;;;;;;;5054503;28;20468;-78
2022/07/31 00:29:49;;;;;;;0.70;0.70;;;;;;;;;;5055057;28;20467;-77
2022/07/31 00:32:17;;;;;;;0.80;0.70;;;;;;;;;;5055071;28;20416;-78
2022/07/31 00:34:44;;;;;;;1.67;0.83;;;;;;;;;;5054701;28;20447;-78
2022/07/31 00:37:11;;;;;;;0.80;0.70;;;;;;;;;;5059512;28;20491;-78
2022/07/31 00:39:38;;;;;;;0.80;0.70;;;;;;;;;;5058585;28;20439;-78
2022/07/31 00:42:04;;;;;;;0.70;0.70;;;;;;;;;;5058065;28;20529;-78
2022/07/31 00:44:31;;;;;;;0.70;0.63;;;;;;;;;;5074693;28;20462;-78
2022/07/31 00:46:58;;;;;;;0.80;0.67;;;;;;;;;;5074719;28;20454;-78
2022/07/31 00:49:28;;;;;;;0.80;0.67;;;;;;;;;;5058017;28;20470;-78
2022/07/31 00:52:03;;;;;;;0.80;0.70;;;;;;;;;;5068381;28;20494;-78
2022/07/31 00:54:33;;;;;;;1.10;1.00;;;;;;;;;;5055812;28;20472;-78
2022/07/31 00:57:00;;;;;;;0.80;0.70;;;;;;;;;;5074592;28;20483;-78
2022/07/31 00:59:27;;;;;;;0.80;0.70;;;;;;;;;;5076061;28;20427;-77
2022/07/31 01:01:54;;;;;;;0.80;0.70;;;;;;;;;;5074056;28;20442;-78
2022/07/31 01:04:21;;;;;;;0.80;0.80;;;;;;;;;;5074649;28;20506;-79
2022/07/31 01:06:49;;;;;;;0.80;0.70;;;;;;;;;;5064881;28;20466;-78
2022/07/31 01:09:16;;;;;;;0.77;0.70;;;;;;;;;;5054466;28;20464;-77
2022/07/31 01:11:46;;;;;;;0.80;0.70;;;;;;;;;;5053121;28;20537;-77
2022/07/31 01:14:16;;;;;;;1.30;1.20;;;;;;;;;;5039192;28;20444;-77
2022/07/31 01:16:45;;;;;;;0.70;0.60;;;;;;;;;;5054658;28;20424;-76
2022/07/31 01:19:17;;;;;;;0.80;0.77;;;;;;;;;;5037959;28;20936;-78
2022/07/31 01:21:48;;;;;;;1.23;0.93;;;;;;;;;;5055128;28;20525;-77
2022/07/31 01:24:25;;;;;;;0.83;0.83;;;;;;;;;;5053961;28;20440;-77
2022/07/31 01:27:26;;;;;;;0.80;0.70;;;;;;;;;;5047966;28;20452;-77
2022/07/31 01:29:55;;;;;;;1.00;0.90;;;;;;;;;;5018059;28;20500;-77
2022/07/31 01:32:24;;;;;;;0.80;0.80;;;;;;;;;;5034028;28;20923;-77
2022/07/31 01:35:01;;;;;;;0.77;0.73;;;;;;;;;;5036280;28;20851;-77
2022/07/31 01:37:33;;;;;;;0.80;0.80;;;;;;;;;;5053108;28;21069;-78
2022/07/31 01:40:04;;;;;;;0.70;0.70;;;;;;;;;;5053315;28;20448;-78
2022/07/31 01:42:34;;;;;;;0.80;0.70;;;;;;;;;;5053604;28;20452;-78
2022/07/31 01:45:05;;;;;;;1.20;1.10;;;;;;;;;;5053727;28;20448;-78
2022/07/31 01:47:32;;;;;;;0.80;0.80;;;;;;;;;;5052862;28;20439;-78
2022/07/31 01:50:00;;;;;;;0.70;0.70;;;;;;;;;;5038217;28;20469;-76
2022/07/31 01:52:29;;;;;;;1.63;1.53;;;;;;;;;;5073110;28;20991;-77
2022/07/31 01:54:57;;;;;;;0.80;0.70;;;;;;;;;;5045188;28;20548;-77
2022/07/31 01:57:25;;;;;;;0.80;0.77;;;;;;;;;;5072045;28;20879;-76
2022/07/31 01:59:59;;;;;;;0.80;0.70;;;;;;;;;;5054141;28;20446;-77
2022/07/31 02:02:50;;;;;;;0.80;0.80;;;;;;;;;;5074049;28;20938;-76
2022/07/31 02:05:20;;;;;;;0.80;0.70;;;;;;;;;;5042270;28;20939;-76
2022/07/31 02:07:48;;;;;;;0.80;0.80;;;;;;;;;;5053012;28;20472;-77
2022/07/31 02:10:16;;;;;;;1.00;0.90;;;;;;;;;;5052092;28;20467;-77
2022/07/31 02:12:48;;;;;;;0.90;0.90;;;;;;;;;;5051956;28;20470;-77
2022/07/31 02:15:18;;;;;;;0.70;0.70;;;;;;;;;;5052956;28;21036;-77
2022/07/31 02:17:47;;;;;;;0.73;0.63;;;;;;;;;;5035839;28;20971;-78
2022/07/31 02:20:23;;;;;;;0.70;0.60;;;;;;;;;;5053741;28;20420;-78
2022/07/31 02:22:55;;;;;;;0.80;0.73;;;;;;;;;;5053492;28;21010;-77
2022/07/31 02:25:23;;;;;;;1.00;0.90;;;;;;;;;;5052525;28;20444;-78
2022/07/31 02:27:53;;;;;;;2.60;1.47;;;;;;;;;;5053203;28;20452;-77
2022/07/31 02:30:30;;;;;;;0.93;0.83;;;;;;;;;;5053754;28;20498;-78
2022/07/31 02:33:10;;;;;;;0.70;0.60;;;;;;;;;;5054720;28;20553;-77
2022/07/31 02:35:50;;;;;;;0.80;0.80;;;;;;;;;;5053314;28;20480;-77
2022/07/31 02:38:24;;;;;;;0.80;0.80;;;;;;;;;;5032577;28;20460;-78
2022/07/31 02:40:58;;;;;;;0.70;0.60;;;;;;;;;;5036051;28;20436;-77
2022/07/31 02:43:30;;;;;;;0.70;0.60;;;;;;;;;;5043678;28;20440;-77
2022/07/31 02:46:06;;;;;;;0.70;0.60;;;;;;;;;;5050838;28;20449;-77
2022/07/31 02:48:42;;;;;;;0.70;0.70;;;;;;;;;;5055015;28;20449;-76
2022/07/31 02:51:14;;;;;;;0.70;0.60;;;;;;;;;;5053337;28;20521;-79
2022/07/31 02:53:43;;;;;;;0.70;0.60;;;;;;;;;;5053539;28;20503;-77
2022/07/31 02:56:14;;;;;;;1.20;1.10;;;;;;;;;;5052551;28;20961;-78
2022/07/31 02:58:42;;;;;;;0.80;0.77;;;;;;;;;;5052410;28;20429;-78
2022/07/31 03:01:21;;;;;;;0.80;0.70;;;;;;;;;;5052428;28;20440;-78
2022/07/31 03:03:50;;;;;;;0.80;0.80;;;;;;;;;;5052358;28;20936;-78
2022/07/31 03:06:18;;;;;;;0.70;0.60;;;;;;;;;;5052669;28;20515;-78
2022/07/31 03:08:47;;;;;;;0.70;0.60;;;;;;;;;;5036284;28;21041;-77
2022/07/31 03:11:17;;;;;;;0.80;0.80;;;;;;;;;;5053954;28;20474;-78
2022/07/31 03:13:45;;;;;;;0.80;0.70;;;;;;;;;;5057463;28;20436;-78
2022/07/31 03:16:13;;;;;;;0.70;0.70;;;;;;;;;;5056946;28;20410;-79
2022/07/31 03:18:40;;;;;;;0.70;0.60;;;;;;;;;;5057214;28;20536;-77
2022/07/31 03:21:08;;;;;;;0.73;0.60;;;;;;;;;;5055585;28;20501;-77
2022/07/31 03:23:36;;;;;;;0.80;0.70;;;;;;;;;;5055830;28;20470;-78
2022/07/31 03:26:07;;;;;;;0.80;0.70;;;;;;;;;;5055452;28;20432;-78
2022/07/31 03:28:34;;;;;;;0.80;0.70;;;;;;;;;;5056241;28;20439;-77
2022/07/31 03:31:01;;;;;;;0.70;0.60;;;;;;;;;;5058251;28;20893;-78
2022/07/31 03:33:30;;;;;;;0.80;0.70;;;;;;;;;;5039405;28;20478;-77
2022/07/31 03:35:59;;;;;;;1.83;1.73;;;;;;;;;;5056002;28;20469;-77
2022/07/31 03:38:26;;;;;;;1.40;0.90;;;;;;;;;;5055538;28;20472;-77
2022/07/31 03:41:32;;;;;;;0.80;0.60;;;;;;;;;;5056000;28;20435;-78
2022/07/31 03:43:59;;;;;;;0.77;0.70;;;;;;;;;;5056338;28;20455;-77
2022/07/31 03:46:27;;;;;;;0.70;0.60;;;;;;;;;;5071363;28;20439;-77
2022/07/31 03:48:54;;;;;;;0.80;0.80;;;;;;;;;;5076278;28;20529;-78
2022/07/31 03:51:24;;;;;;;0.80;0.80;;;;;;;;;;5059245;28;20474;-77
2022/07/31 03:53:51;;;;;;;1.13;1.03;;;;;;;;;;5059145;28;20473;-76
2022/07/31 03:56:42;;;;;;;1.00;0.90;;;;;;;;;;5069960;28;20444;-76
2022/07/31 03:59:12;;;;;;;1.53;1.27;;;;;;;;;;5056089;28;20817;-76
2022/07/31 04:01:40;;;;;;;1.37;1.10;;;;;;;;;;5074675;28;20446;-76
2022/07/31 04:04:47;;;;;;;0.80;0.73;;;;;;;;;;5076114;28;20525;-76
2022/07/31 04:07:15;;;;;;;0.80;0.70;;;;;;;;;;5053517;28;20460;-77
2022/07/31 04:09:41;;;;;;;0.70;0.60;;;;;;;;;;5038424;28;20448;-77
2022/07/31 04:12:12;;;;;;;0.70;0.70;;;;;;;;;;5053932;28;20448;-77
2022/07/31 04:14:38;;;;;;;0.80;0.70;;;;;;;;;;5060181;28;20530;-77
2022/07/31 04:17:06;;;;;;;1.40;1.30;;;;;;;;;;5075586;28;20538;-77
2022/07/31 04:19:34;;;;;;;0.80;0.73;;;;;;;;;;5076052;28;20463;-77
2022/07/31 04:22:01;;;;;;;0.70;0.70;;;;;;;;;;5074801;28;20520;-78
2022/07/31 04:24:29;;;;;;;2.20;1.37;;;;;;;;;;5073441;28;20443;-77
2022/07/31 04:27:26;;;;;;;0.80;0.70;;;;;;;;;;5054498;28;20438;-78
2022/07/31 04:29:54;;;;;;;0.80;0.70;;;;;;;;;;5054994;28;21046;-78
2022/07/31 04:32:22;;;;;;;1.03;0.93;;;;;;;;;;5054994;28;20444;-78
2022/07/31 04:34:53;;;;;;;0.80;0.80;;;;;;;;;;5055246;28;20436;-79
2022/07/31 04:37:20;;;;;;;0.80;0.73;;;;;;;;;;5054475;28;20590;-77
2022/07/31 04:39:47;;;;;;;0.83;0.83;;;;;;;;;;5063514;28;20474;-78
2022/07/31 04:42:15;;;;;;;0.80;0.70;;;;;;;;;;5074832;28;20466;-77
2022/07/31 04:44:44;;;;;;;0.80;0.70;;;;;;;;;;5055006;28;20785;-78
2022/07/31 04:47:11;;;;;;;0.70;0.70;;;;;;;;;;5037372;28;20455;-77
2022/07/31 04:49:45;;;;;;;0.80;0.80;;;;;;;;;;5067660;28;20782;-77
2022/07/31 04:52:14;;;;;;;0.80;0.70;;;;;;;;;;5058484;28;20886;-78
2022/07/31 04:54:44;;;;;;;1.20;0.90;;;;;;;;;;5058902;28;20859;-79
2022/07/31 04:57:13;;;;;;;0.80;0.70;;;;;;;;;;5059925;28;20447;-78
2022/07/31 04:59:46;;;;;;;0.80;0.70;;;;;;;;;;5054239;28;20416;-78
2022/07/31 05:02:26;;;;;;;0.70;0.67;;;;;;;;;;5054626;28;20436;-78
2022/07/31 05:04:54;;;;;;;0.80;0.80;;;;;;;;;;5053997;28;20475;-78
2022/07/31 05:07:24;;;;;;;1.63;0.90;;;;;;;;;;5037406;28;20471;-78
2022/07/31 05:09:54;;;;;;;0.83;0.83;;;;;;;;;;5059664;28;20493;-78
2022/07/31 05:12:21;;;;;;;0.80;0.70;;;;;;;;;;5074189;28;20492;-79
2022/07/31 05:14:50;;;;;;;0.80;0.73;;;;;;;;;;5057311;28;20863;-78
2022/07/31 05:17:19;;;;;;;0.80;0.70;;;;;;;;;;5073612;28;20493;-78
2022/07/31 05:19:58;;;;;;;0.80;0.77;;;;;;;;;;5073609;28;20446;-79
2022/07/31 05:22:39;;;;;;;0.70;0.63;;;;;;;;;;5072936;28;20520;-78
2022/07/31 05:25:17;;;;;;;0.80;0.70;;;;;;;;;;5067543;28;20786;-78
2022/07/31 05:27:44;;;;;;;0.80;0.80;;;;;;;;;;5053184;28;20518;-78
2022/07/31 05:30:17;;;;;;;1.00;0.90;;;;;;;;;;5053644;28;20467;-78
2022/07/31 05:32:57;;;;;;;0.80;0.70;;;;;;;;;;5038975;28;20452;-76
2022/07/31 05:35:24;;;;;;;0.80;0.80;;;;;;;;;;5036854;28;20788;-76
2022/07/31 05:37:51;;;;;;;1.00;0.90;;;;;;;;;;5067255;28;20458;-77
2022/07/31 05:40:24;;;;;;;1.13;1.03;;;;;;;;;;5073123;28;20555;-77
2022/07/31 05:43:12;;;;;;;0.80;0.70;;;;;;;;;;5073786;28;20438;-78
2022/07/31 05:45:52;;;;;;;1.27;1.17;;;;;;;;;;5058070;28;20445;-78
2022/07/31 05:48:20;;;;;;;1.37;1.27;;;;;;;;;;5057187;28;20435;-77
2022/07/31 05:50:47;;;;;;;0.80;0.80;;;;;;;;;;5055184;28;20471;-76
2022/07/31 05:53:15;;;;;;;0.70;0.70;;;;;;;;;;5037293;28;20420;-75
2022/07/31 05:56:08;;;;;;;0.80;0.60;;;;;;;;;;5054607;28;20426;-79
2022/07/31 05:58:48;;;;;;;0.80;0.70;;;;;;;;;;5037885;28;20494;-79
2022/07/31 06:01:16;;;;;;;0.80;0.70;;;;;;;;;;5050516;28;20478;-78
2022/07/31 06:03:43;;;;;;;1.23;1.00;;;;;;;;;;5035557;28;20455;-78
2022/07/31 06:06:24;;;;;;;1.03;0.90;;;;;;;;;;5052418;28;20519;-78
2022/07/31 06:08:51;;;;;;;0.70;0.70;;;;;;;;;;5054076;28;20462;-78
2022/07/31 06:11:18;;;;;;;0.80;0.70;;;;;;;;;;5053307;28;20464;-79
2022/07/31 06:13:46;;;;;;;0.80;0.70;;;;;;;;;;5054773;28;20879;-79
2022/07/31 06:16:28;;;;;;;0.70;0.70;;;;;;;;;;5037924;28;20490;-79
2022/07/31 06:18:55;;;;;;;1.00;0.70;;;;;;;;;;5051988;28;20455;-78
2022/07/31 06:21:24;;;;;;;0.70;0.70;;;;;;;;;;5053444;28;20543;-79
2022/07/31 06:23:56;;;;;;;1.03;0.90;;;;;;;;;;5053160;28;20407;-78
2022/07/31 06:26:35;;;;;;;0.80;0.70;;;;;;;;;;5053492;28;20967;-78
2022/07/31 06:29:02;;;;;;;0.80;0.80;;;;;;;;;;5036302;28;20553;-78
2022/07/31 06:31:30;;;;;;;0.80;0.70;;;;;;;;;;5052899;28;20521;-78
2022/07/31 06:33:57;;;;;;;0.80;0.70;;;;;;;;;;5052516;28;20440;-79
2022/07/31 06:36:33;;;;;;;0.80;0.80;;;;;;;;;;5051795;28;20453;-78
2022/07/31 06:39:02;;;;;;;0.70;0.60;;;;;;;;;;5053170;28;20411;-78
2022/07/31 06:41:45;;;;;;;0.80;0.80;;;;;;;;;;5055261;28;20407;-78
2022/07/31 06:44:33;;;;;;;0.70;0.60;;;;;;;;;;5053247;28;20428;-78
2022/07/31 06:47:31;;;;;;;0.80;0.73;;;;;;;;;;5054044;28;20412;-79
2022/07/31 06:50:15;;;;;;;0.80;0.70;;;;;;;;;;5038476;28;20477;-78
2022/07/31 06:52:56;;;;;;;1.27;0.90;;;;;;;;;;5050799;28;20427;-78
2022/07/31 06:55:25;;;;;;;0.70;0.70;;;;;;;;;;5043097;28;20446;-78
2022/07/31 06:57:52;;;;;;;0.90;0.83;;;;;;;;;;5071763;28;20406;-78
2022/07/31 07:00:19;;;;;;;0.80;0.60;;;;;;;;;;5072770;28;20871;-78
2022/07/31 07:02:51;;;;;;;0.70;0.70;;;;;;;;;;5072651;28;20439;-77
2022/07/31 07:05:20;;;;;;;0.80;0.80;;;;;;;;;;5072231;28;20463;-78
2022/07/31 07:07:50;;;;;;;0.80;0.70;;;;;;;;;;5052463;28;20538;-78
2022/07/31 07:10:17;;;;;;;0.70;0.60;;;;;;;;;;5071315;28;20423;-77
2022/07/31 07:13:07;;;;;;;0.80;0.67;;;;;;;;;;5067115;28;20435;-78
2022/07/31 07:15:35;;;;;;;0.70;0.60;;;;;;;;;;5055164;28;20406;-78
2022/07/31 07:18:03;;;;;;;0.70;0.60;;;;;;;;;;5038612;28;20915;-77
2022/07/31 07:20:38;;;;;;;1.10;1.00;;;;;;;;;;5052205;28;20457;-79
2022/07/31 07:23:05;;;;;;;0.70;0.60;;;;;;;;;;5057962;28;20802;-79
2022/07/31 07:25:42;;;;;;;0.80;0.70;;;;;;;;;;5048075;28;20439;-79
2022/07/31 07:28:12;;;;;;;0.80;0.70;;;;;;;;;;5071345;28;21005;-79
2022/07/31 07:31:00;;;;;;;0.80;0.70;;;;;;;;;;5073058;28;20457;-79
2022/07/31 07:33:30;;;;;;;0.80;0.70;;;;;;;;;;5071968;28;20442;-79
2022/07/31 07:36:09;;;;;;;0.70;0.70;;;;;;;;;;5068617;28;20475;-79
2022/07/31 07:39:02;;;;;;;1.07;0.70;;;;;;;;;;5052712;28;20437;-79
2022/07/31 07:41:31;;;;;;;0.80;0.70;;;;;;;;;;5036052;28;20403;-78
2022/07/31 07:43:59;;;;;;;0.77;0.70;;;;;;;;;;5051650;28;20469;-79
2022/07/31 07:46:28;;;;;;;1.10;1.00;;;;;;;;;;5051223;28;20440;-79
2022/07/31 07:49:01;;;;;;;0.80;0.70;;;;;;;;;;5053588;28;20914;-76
2022/07/31 07:51:42;;;;;;;0.80;0.80;;;;;;;;;;5056298;28;20857;-76
2022/07/31 07:54:45;;;;;;;0.70;0.60;;;;;;;;;;5054210;28;20431;-77
2022/07/31 07:57:16;;;;;;;0.80;0.70;;;;;;;;;;5050344;28;20418;-76
2022/07/31 08:00:05;;;;;;;0.80;0.80;;;;;;;;;;5033484;28;20738;-75
2022/07/31 08:02:58;;;;;;;0.80;0.80;;;;;;;;;;5021795;28;20440;-75
2022/07/31 08:05:46;;;;;;;0.80;0.70;;;;;;;;;;5078909;28;20430;-76
2022/07/31 08:08:14;;;;;;;0.80;0.70;;;;;;;;;;5054407;28;20948;-76
2022/07/31 08:10:46;;;;;;;0.80;0.70;;;;;;;;;;5056691;28;20458;-75
2022/07/31 08:13:43;;;;;;;1.87;1.53;;;;;;;;;;5055413;28;20410;-76
2022/07/31 08:16:55;;;;;;;0.70;0.60;;;;;;;;;;5054765;28;20414;-77
2022/07/31 08:19:24;;;;;;;0.80;0.70;;;;;;;;;;5067055;28;20445;-76
2022/07/31 08:21:52;;;;;;;0.70;0.60;;;;;;;;;;5045432;28;20469;-77
2022/07/31 08:24:22;;;;;;;0.73;0.60;;;;;;;;;;5038050;28;20500;-75
2022/07/31 08:29:36;;;;;;;0.80;0.67;;;;;;;;;;5051786;28;20941;-75
2022/07/31 08:32:15;;;;;;;1.10;0.93;;;;;;;;;;5041428;28;20459;-76
2022/07/31 08:35:03;;;;;;;0.80;0.70;;;;;;;;;;5055256;28;20801;-74
2022/07/31 08:37:31;;;;;;;0.80;0.70;;;;;;;;;;5050545;28;20457;-76
2022/07/31 08:40:20;;;;;;;0.80;0.70;;;;;;;;;;5074818;28;20439;-75
2022/07/31 08:42:48;;;;;;;0.70;0.60;;;;;;;;;;5077712;28;20828;-77
2022/07/31 08:45:15;;;;;;;0.93;0.83;;;;;;;;;;5077568;28;20462;-76
2022/07/31 08:47:51;;;;;;;0.70;0.60;;;;;;;;;;5075362;28;20935;-75
2022/07/31 08:50:24;;;;;;;0.70;0.60;;;;;;;;;;5049609;28;20476;-75
2022/07/31 08:52:53;;;;;;;0.70;0.60;;;;;;;;;;5054514;28;20903;-74
2022/07/31 08:55:55;;;;;;;0.80;0.70;;;;;;;;;;5054995;28;20932;-75
2022/07/31 08:58:27;;;;;;;0.70;0.60;;;;;;;;;;5054069;28;20437;-75
2022/07/31 09:00:55;;;;;;;0.70;0.60;;;;;;;;;;5054677;28;20436;-76
2022/07/31 09:03:22;;;;;;;0.77;0.70;;;;;;;;;;5055783;28;20440;-75
2022/07/31 09:05:53;;;;;;;0.73;0.60;;;;;;;;;;5059552;28;20464;-75
2022/07/31 09:08:42;;;;;;;0.70;0.60;;;;;;;;;;5054546;28;20546;-75
2022/07/31 09:11:10;;;;;;;0.70;0.60;;;;;;;;;;5054512;28;20888;-74
2022/07/31 09:13:52;;;;;;;0.80;0.70;;;;;;;;;;5053834;28;20453;-76
2022/07/31 09:16:49;;;;;;;0.80;0.70;;;;;;;;;;5042184;28;20964;-75
2022/07/31 09:19:23;;;;;;;0.70;0.60;;;;;;;;;;5063369;28;20442;-75
2022/07/31 09:22:23;;;;;;;0.73;0.63;;;;;;;;;;5041326;28;20832;-76
2022/07/31 09:24:53;;;;;;;0.90;0.70;;;;;;;;;;5054830;28;20459;-75
2022/07/31 09:27:26;;;;;;;0.80;0.70;;;;;;;;;;5053904;28;20439;-76
2022/07/31 09:29:55;;;;;;;4.70;0.87;;;;;;;;;;5053866;28;20431;-75
2022/07/31 09:32:37;;;;;;;1.10;1.00;;;;;;;;;;5041517;28;20534;-76
2022/07/31 09:35:11;;;;;;;0.77;0.70;;;;;;;;;;5055732;28;20443;-76
2022/07/31 09:37:38;;;;;;;0.80;0.70;;;;;;;;;;5040720;28;20490;-76
2022/07/31 09:40:34;;;;;;;0.80;0.70;;;;;;;;;;5071632;28;20429;-77
2022/07/31 09:43:31;;;;;;;0.80;0.70;;;;;;;;;;5074952;28;20427;-76
2022/07/31 09:45:58;;;;;;;0.70;0.60;;;;;;;;;;5073693;28;20454;-75
2022/07/31 09:48:25;;;;;;;0.70;0.60;;;;;;;;;;5060714;28;20898;-75
2022/07/31 09:50:56;;;;;;;0.70;0.60;;;;;;;;;;5035571;28;20474;-76
2022/07/31 09:53:25;;;;;;;0.80;0.80;;;;;;;;;;5050573;28;20475;-77
2022/07/31 09:56:11;;;;;;;0.80;0.80;;;;;;;;;;5053133;28;20475;-78
2022/07/31 09:58:41;;;;;;;0.80;0.70;;;;;;;;;;5053399;28;20436;-77
2022/07/31 10:01:09;;;;;;;0.70;0.60;;;;;;;;;;5036988;28;20444;-75
2022/07/31 10:03:38;;;;;;;0.70;0.50;;;;;;;;;;5053897;28;20848;-75
2022/07/31 10:06:07;;;;;;;1.10;0.97;;;;;;;;;;5036805;28;21053;-77
2022/07/31 10:08:37;;;;;;;0.70;0.60;;;;;;;;;;5036897;28;20440;-74
2022/07/31 10:11:24;;;;;;;0.70;0.60;;;;;;;;;;5054158;28;20995;-77
2022/07/31 10:14:11;;;;;;;0.70;0.60;;;;;;;;;;5038238;28;20543;-76
2022/07/31 10:16:38;;;;;;;0.70;0.50;;;;;;;;;;5037349;28;20451;-77
2022/07/31 10:19:26;;;;;;;0.70;0.57;;;;;;;;;;5054038;28;20407;-75
2022/07/31 10:22:16;;;;;;;0.70;0.60;;;;;;;;;;5052650;28;20460;-75
2022/07/31 10:24:46;;;;;;;0.70;0.57;;;;;;;;;;5054309;28;20465;-77
2022/07/31 10:27:17;;;;;;;0.70;0.50;;;;;;;;;;5062090;28;20439;-76
2022/07/31 10:29:51;;;;;;;0.70;0.50;;;;;;;;;;5072046;28;20438;-77
2022/07/31 10:32:18;;;;;;;0.70;0.60;;;;;;;;;;5063276;28;20921;-77
2022/07/31 10:35:06;;;;;;;0.70;0.50;;;;;;;;;;5054120;28;20435;-77
2022/07/31 10:38:11;;;;;;;0.70;0.50;;;;;;;;;;5059213;28;20450;-77
2022/07/31 10:41:05;;;;;;;0.73;0.60;;;;;;;;;;5053063;28;20459;-76
2022/07/31 10:43:40;;;;;;;0.70;0.60;;;;;;;;;;5052610;28;20447;-77
2022/07/31 10:46:29;;;;;;;0.70;0.60;;;;;;;;;;5053803;28;20440;-76
2022/07/31 10:49:14;;;;;;;0.80;0.60;;;;;;;;;;5051332;28;21036;-76
2022/07/31 10:51:59;;;;;;;0.70;0.50;;;;;;;;;;5060204;28;20470;-75
2022/07/31 10:54:45;;;;;;;0.70;0.60;;;;;;;;;;5055677;28;20951;-75
2022/07/31 10:57:35;;;;;;;0.70;0.50;;;;;;;;;;5050647;28;20777;-75
2022/07/31 11:00:44;;;;;;;0.80;0.60;;;;;;;;;;5062178;28;20497;-75
2022/07/31 11:03:48;;;;;;;0.80;0.60;;;;;;;;;;5051084;28;20924;-79
2022/07/31 11:06:38;;;;;;;0.70;0.60;;;;;;;;;;5056038;28;20466;-76
2022/07/31 11:09:28;;;;;;;0.70;0.60;;;;;;;;;;5071739;28;20442;-78
2022/07/31 11:12:24;;;;;;;0.87;0.60;;;;;;;;;;5044436;28;20468;-76
2022/07/31 11:15:18;;;;;;;1.10;0.70;;;;;;;;;;5053554;28;20951;-77
2022/07/31 11:18:14;;;;;;;0.80;0.50;;;;;;;;;;5050700;28;20435;-77
2022/07/31 11:21:03;;;;;;;0.70;0.50;;;;;;;;;;5055887;28;20455;-77
2022/07/31 11:23:50;;;;;;;0.73;0.57;;;;;;;;;;5038292;28;20428;-79
2022/07/31 11:26:31;;;;;;;0.80;0.70;;;;;;;;;;5070374;28;20439;-78
2022/07/31 11:29:08;;;;;;;0.90;0.77;;;;;;;;;;5071471;28;20927;-79
2022/07/31 11:31:59;;;;;;;1.57;0.70;;;;;;;;;;5074563;28;20521;-77
2022/07/31 11:34:27;;;;;;;0.77;0.53;;;;;;;;;;5058974;28;20427;-77
2022/07/31 11:36:54;;;;;;;0.70;0.57;;;;;;;;;;5062067;28;20475;-77
2022/07/31 11:39:25;;;;;;;0.90;0.80;;;;;;;;;;5056646;28;20944;-77
2022/07/31 11:42:03;;;;;;;0.70;0.60;;;;;;;;;;5041256;28;20450;-77
2022/07/31 11:44:32;;;;;;;0.80;0.70;;;;;;;;;;5038361;28;20436;-75
2022/07/31 11:47:00;;;;;;;0.80;0.60;;;;;;;;;;5055055;28;20924;-77
2022/07/31 11:49:34;;;;;;;0.80;0.60;;;;;;;;;;5052432;28;20440;-76
2022/07/31 11:52:15;;;;;;;0.70;0.60;;;;;;;;;;5055554;28;20467;-75
2022/07/31 11:55:02;;;;;;;1.90;0.70;;;;;;;;;;5059802;28;20450;-75
2022/07/31 11:57:35;;;;;;;0.80;0.70;;;;;;;;;;5076147;28;20407;-76
2022/07/31 12:00:19;;;;;;;0.70;0.53;;;;;;;;;;5075453;28;20423;-76
2022/07/31 12:02:56;;;;;;;0.77;0.57;;;;;;;;;;5076031;28;20429;-78
2022/07/31 12:05:24;;;;;;;0.70;0.50;;;;;;;;;;5057685;28;20428;-77
2022/07/31 12:08:05;;;;;;;0.70;0.60;;;;;;;;;;5055154;28;20814;-77
2022/07/31 12:10:32;;;;;;;0.70;0.60;;;;;;;;;;5039506;28;20447;-77
2022/07/31 12:13:00;;;;;;;0.70;0.50;;;;;;;;;;5055296;28;20564;-78
2022/07/31 12:15:27;;;;;;;0.80;0.80;;;;;;;;;;5055072;28;21026;-77
2022/07/31 12:17:59;;;;;;;0.70;0.60;;;;;;;;;;5057676;28;20827;-78
2022/07/31 12:20:27;;;;;;;0.70;0.50;;;;;;;;;;5077276;28;20407;-78
2022/07/31 12:23:03;;;;;;;2.60;0.73;;;;;;;;;;5073012;28;20435;-76
2022/07/31 12:25:40;;;;;;;0.80;0.70;;;;;;;;;;5074836;28;20439;-76
2022/07/31 12:28:08;;;;;;;0.70;0.60;;;;;;;;;;5076472;28;20411;-76
2022/07/31 12:30:35;;;;;;;0.90;0.70;;;;;;;;;;5058883;28;20431;-77
2022/07/31 12:33:06;;;;;;;0.80;0.60;;;;;;;;;;5060156;28;20464;-78
2022/07/31 12:35:39;;;;;;;0.70;0.60;;;;;;;;;;5054546;28;20448;-76
2022/07/31 12:38:22;;;;;;;0.70;0.60;;;;;;;;;;5038841;28;20546;-77
2022/07/31 12:41:06;;;;;;;0.80;0.70;;;;;;;;;;5055033;28;20420;-80
2022/07/31 12:43:36;;;;;;;0.70;0.50;;;;;;;;;;5053785;28;20501;-77
2022/07/31 12:46:06;;;;;;;0.80;0.70;;;;;;;;;;5055353;28;20494;-75
2022/07/31 12:48:34;;;;;;;0.70;0.60;;;;;;;;;;5055891;28;20459;-77
2022/07/31 12:51:09;;;;;;;0.70;0.60;;;;;;;;;;5050245;28;20680;-77
2022/07/31 12:53:36;;;;;;;0.80;0.60;;;;;;;;;;5068217;28;20476;-75
2022/07/31 12:56:03;;;;;;;0.70;0.50;;;;;;;;;;5068035;28;20444;-77
2022/07/31 12:58:30;;;;;;;0.70;0.60;;;;;;;;;;5067604;28;20843;-79
2022/07/31 13:00:57;;;;;;;0.70;0.60;;;;;;;;;;5034218;28;20445;-75
2022/07/31 13:03:24;;;;;;;0.70;0.50;;;;;;;;;;5074474;28;20474;-75
2022/07/31 13:06:12;;;;;;;0.70;0.60;;;;;;;;;;5053339;28;20467;-76
2022/07/31 13:08:38;;;;;;;0.70;0.60;;;;;;;;;;5037520;28;20547;-77
2022/07/31 13:11:05;;;;;;;0.70;0.50;;;;;;;;;;5056139;28;20936;-76
2022/07/31 13:13:32;;;;;;;0.80;0.77;;;;;;;;;;5037916;28;20567;-75
2022/07/31 13:15:59;;;;;;;1.10;1.00;;;;;;;;;;5054801;28;20478;-78
2022/07/31 13:18:26;;;;;;;0.90;0.80;;;;;;;;;;5054691;28;20456;-76
2022/07/31 13:20:52;;;;;;;0.70;0.60;;;;;;;;;;5054089;28;20491;-77
2022/07/31 13:23:20;;;;;;;0.83;0.73;;;;;;;;;;5054231;28;20547;-77
2022/07/31 13:25:47;;;;;;;0.80;0.70;;;;;;;;;;5065566;28;20451;-76
2022/07/31 13:28:14;;;;;;;0.70;0.50;;;;;;;;;;5075096;28;20453;-77
2022/07/31 13:30:41;;;;;;;0.80;0.60;;;;;;;;;;5075560;28;20413;-76
2022/07/31 13:33:08;;;;;;;0.70;0.60;;;;;;;;;;5073737;28;20467;-75
2022/07/31 13:35:34;;;;;;;0.80;0.60;;;;;;;;;;5072922;28;20497;-76
2022/07/31 13:38:01;;;;;;;0.80;0.63;;;;;;;;;;5054421;28;20523;-77
2022/07/31 13:43:16;;;;;;;0.80;0.60;;;;;;;;;;5053409;28;20432;-76
2022/07/31 13:45:43;;;;;;;0.80;0.63;;;;;;;;;;5053519;28;20456;-77
2022/07/31 13:48:10;;;;;;;0.70;0.50;;;;;;;;;;5054940;28;20467;-78
2022/07/31 13:50:38;;;;;;;0.73;0.53;;;;;;;;;;5037143;28;20992;-76
2022/07/31 13:53:05;;;;;;;0.70;0.60;;;;;;;;;;5053505;28;20468;-74
2022/07/31 13:55:34;;;;;;;0.70;0.60;;;;;;;;;;5055010;28;20440;-76
2022/07/31 13:58:01;;;;;;;0.80;0.60;;;;;;;;;;5053565;28;20917;-76
2022/07/31 14:00:27;;;;;;;0.80;0.70;;;;;;;;;;5052584;28;20881;-75
2022/07/31 14:02:55;;;;;;;0.70;0.53;;;;;;;;;;5045804;28;20542;-76
2022/07/31 14:05:22;;;;;;;0.80;0.63;;;;;;;;;;5063962;28;20451;-77
2022/07/31 14:07:51;;;;;;;0.70;0.50;;;;;;;;;;5053637;28;20435;-77
2022/07/31 14:10:23;;;;;;;0.80;0.70;;;;;;;;;;5053181;28;20440;-75
2022/07/31 14:12:52;;;;;;;1.77;1.60;;;;;;;;;;5054094;28;20999;-75
2022/07/31 14:15:19;;;;;;;0.70;0.60;;;;;;;;;;5036469;28;20442;-75
2022/07/31 14:17:46;;;;;;;1.37;1.13;;;;;;;;;;5053802;28;20939;-76
2022/07/31 14:20:13;;;;;;;0.80;0.80;;;;;;;;;;5064439;28;20509;-76
2022/07/31 14:22:41;;;;;;;0.80;0.60;;;;;;;;;;5055566;28;20470;-76
2022/07/31 14:25:08;;;;;;;0.70;0.60;;;;;;;;;;5071195;28;20444;-76
2022/07/31 14:27:37;;;;;;;0.90;0.70;;;;;;;;;;5071468;28;20470;-75
2022/07/31 14:30:06;;;;;;;0.70;0.60;;;;;;;;;;5051730;28;20493;-75
2022/07/31 14:32:32;;;;;;;0.70;0.60;;;;;;;;;;5053753;28;20932;-75
2022/07/31 14:34:59;;;;;;;0.80;0.60;;;;;;;;;;5051770;28;20525;-74
2022/07/31 14:37:33;;;;;;;0.70;0.60;;;;;;;;;;5068148;28;20548;-74
2022/07/31 14:40:01;;;;;;;0.70;0.60;;;;;;;;;;5072581;28;20423;-75
2022/07/31 14:42:28;;;;;;;0.70;0.60;;;;;;;;;;5074168;28;20983;-74
2022/07/31 14:44:55;;;;;;;0.80;0.70;;;;;;;;;;5072598;28;20485;-73
2022/07/31 14:47:23;;;;;;;0.70;0.70;;;;;;;;;;5073530;28;20438;-74
2022/07/31 14:49:51;;;;;;;0.80;0.60;;;;;;;;;;5056375;28;20435;-75
2022/07/31 14:52:36;;;;;;;1.10;0.83;;;;;;;;;;5071461;28;20446;-76
2022/07/31 14:55:03;;;;;;;0.80;0.73;;;;;;;;;;5032396;28;20504;-77
2022/07/31 14:57:30;;;;;;;0.80;0.60;;;;;;;;;;5040612;28;20526;-77
2022/07/31 14:59:57;;;;;;;0.70;0.60;;;;;;;;;;5052527;28;20547;-74
2022/07/31 15:02:26;;;;;;;0.97;0.87;;;;;;;;;;5051048;28;20538;-75
2022/07/31 15:04:53;;;;;;;0.80;0.70;;;;;;;;;;5052393;28;20779;-74
2022/07/31 15:07:20;;;;;;;0.70;0.50;;;;;;;;;;5055059;28;20566;-75
2022/07/31 15:10:07;;;;;;;0.70;0.60;;;;;;;;;;5056920;28;20904;-75
2022/07/31 15:12:35;;;;;;;0.70;0.60;;;;;;;;;;5055939;28;20526;-76
2022/07/31 15:15:01;;;;;;;0.70;0.63;;;;;;;;;;5056138;28;20459;-75
2022/07/31 15:17:29;;;;;;;1.13;0.70;;;;;;;;;;5055487;28;20527;-75
2022/07/31 15:19:56;;;;;;;0.77;0.60;;;;;;;;;;5057204;28;20420;-76
2022/07/31 15:22:24;;;;;;;0.70;0.60;;;;;;;;;;5055912;28;20456;-74
2022/07/31 15:24:51;;;;;;;1.83;0.67;;;;;;;;;;5057092;28;20497;-75